Terminal Aerodrome Forecast
Issued by NWS

Current Version | Previous Version | Graphics & Text | Print | Product List | Glossary On
Versions: 1 2 3 4 5 6 7 8 9 10 11 12 13 14 15 16 17 18
000
FTUS41 KILN 282000 AAB
TAFLCK
TAF AMD
KLCK 282047Z 2821/2918 28014G24KT P6SM BKN022 OVC050
     FM282200 25012KT P6SM BKN050 OVC100
     FM282300 26010KT P6SM SCT100 OVC200
     FM290200 26006KT P6SM SCT200
     FM291500 26009KT P6SM SCT035=

USA.gov is the U.S. government's official web portal to all federal, state and local government web resources and services.